Point Mugu Naval Air Station (Naval Base Ventura Co)
KNTD : rendu visible

Aérodrome :











RETROUVEZ-NOUS SUR...

 
LOGIN :

S'inscrire | Disclaimer

   EN    FR    IT 

 









Légende :    VFR   VFR Marginal   IFR   IFR Intensif   IFR Très Intensif
Visi : 
Plafond : 
>= 8 km
>= 3000ft
5 à 8 km
1000 à 3000 ft
1500m à 5 km
500 à 1000 ft
800 à 1500m
200 à 500 ft
< 800m
< 200 ft
Symboles :   Orages  Brouillard  Fortes neiges  Fortes précipitations  Vent > 20 kt






- Altitude de l'aérodrome : 13 ft


KNTD - Point Mugu Naval Air Station (Naval Base Ventura Co)

DERNIER METAR :
  • 290852Z AUTO 02005KT 7SM CLR 09/07 A3009 RMK AO2 SLP190 T00940072 56006 $

METARs EXPIRÉS :
  • 290752Z AUTO 04004KT 9SM CLR 10/07 A3010 RMK AO2 SLP193 T01000072 401670061 $
  • 290652Z AUTO 00000KT 8SM CLR 11/08 A3010 RMK AO2 SLP194 T01060078 $

TAF TAF KNTD
Valide du 28 à 23h jusqu'au 29 à 23h UTC


2823/2923 24009KT 9999 FEW030 SCT120 BKN250 QNH3006INS
FM290600 29006KT 9999 SCT025 BKN100 QNH3003INS
TEMPO 2909/2915 BKN020 BKN100
FM291500 29008KT 9999 FEW025 SCT070 QNH3006INS
FM291900 26012G20KT 9999 FEW030 SCT070 QNH3003INS
BECMG 2921/2922 27020G30KT 9999 FEW035 FEW070 520005 QNH3000INS LAST NO AMDS AFT 2900 NEXT 2915 T08/2914Z T17/2922Z FS30164



MET'MAP, la Météo Aéronautique d'un coup d'oeil ! - Copyright ORBIFLY Décembre 2007 - Disclaimer

ORBIFLY MET'MAP TEAM :

Programmation & Développement : Alexandra Zaïnal
Sur une idée originale de : Baudouin d'Aumeries
Assistance à la programmation : Marc-Olivier Méhu
Soutien technique & logistique : Manuel Goepfert

Contact : metmap@orbifly.com




SOURCES & CREDITS :

   NOAA       Earth
Advisory